South Portland, Maine
Current Conditions -  °F | °C
As of 1:51 PM on Thursday 27 Nov 2014 (Local Time) from KPWM Reporting Station
Broken Clouds Broken Clouds  
Wind Chill: 32°   Ceiling: 7500
Heat Index: 37°   Visibility: 10mi
Dew Point: 27°   Wind: 7mph
Humidity: 67%   Direction: 330°NNW
Pressure: 29.94"   Gusts: NA
Location:  43.64°N, 70.25°W
Report Text: KPWM 271851Z 33006KT 10SM BKN075 03/M03 A2994 RMK AO2 SLP140 T00281028 $
Loading
Personal Weather Stations






























Interactive Weather Map New forecast layout! Learn more

10-Day Weather Forecast

Advertisements
Track Severe Weather on mobile